createdAt,value
2018-11-02T00:01:21.007Z,101083.16
2018-11-02T00:03:49.410Z,101096.11
2018-11-02T00:06:17.967Z,101110.95
2018-11-02T00:08:46.241Z,101126.98
2018-11-02T00:11:14.609Z,101131.59
2018-11-02T00:13:43.127Z,101137.67
2018-11-02T00:16:11.529Z,101118.11
2018-11-02T00:18:39.919Z,101118.36
2018-11-02T00:21:08.247Z,101113.42
2018-11-02T00:23:36.579Z,101114.89
2018-11-02T00:26:05.131Z,101108.08
2018-11-02T00:28:33.450Z,101105.89
2018-11-02T00:31:01.814Z,101112.57
2018-11-02T00:33:30.161Z,101106.81
2018-11-02T00:35:58.499Z,101115.78
2018-11-02T00:38:26.843Z,101119.77
2018-11-02T00:40:55.210Z,101118.23
2018-11-02T00:43:24.141Z,101123.05
2018-11-02T00:45:52.509Z,101118.71
2018-11-02T00:48:20.851Z,101113.36
2018-11-02T00:50:50.091Z,101117.91
2018-11-02T00:53:18.456Z,101107.27
2018-11-02T00:55:46.843Z,101109.19
2018-11-02T00:58:15.432Z,101116.80
2018-11-02T01:00:43.802Z,101118.54
2018-11-02T01:03:12.309Z,101121.73
2018-11-02T01:05:40.701Z,101127.89
2018-11-02T01:08:09.044Z,101125.39
2018-11-02T01:10:37.375Z,101126.46
2018-11-02T01:13:05.696Z,101124.38
2018-11-02T01:15:34.068Z,101121.05
2018-11-02T01:18:02.393Z,101116.98
2018-11-02T01:20:30.728Z,101111.58
2018-11-02T01:22:59.081Z,101118.39
2018-11-02T01:25:27.419Z,101126.05
2018-11-02T01:27:55.778Z,101129.72
2018-11-02T01:30:24.115Z,101157.89
2018-11-02T01:32:52.478Z,101160.03
2018-11-02T01:35:20.830Z,101166.25
2018-11-02T01:37:49.152Z,101171.89
2018-11-02T01:40:17.478Z,101175.30
2018-11-02T01:42:45.836Z,101176.23
2018-11-02T01:45:14.169Z,101174.14
2018-11-02T01:47:42.513Z,101161.48
2018-11-02T01:50:10.843Z,101172.58
2018-11-02T01:52:39.165Z,101169.97
2018-11-02T01:55:08.034Z,101175.66
2018-11-02T01:57:36.504Z,101184.66
2018-11-02T02:00:05.471Z,101186.44
2018-11-02T02:02:33.800Z,101178.91
2018-11-02T02:05:02.112Z,101178.91
2018-11-02T02:07:30.457Z,101179.77
2018-11-02T02:09:58.820Z,101190.92
2018-11-02T02:12:27.301Z,101187.84
2018-11-02T02:14:55.626Z,101189.77
2018-11-02T02:17:23.970Z,101180.23
2018-11-02T02:19:52.354Z,101182.37
2018-11-02T02:22:20.674Z,101171.19
2018-11-02T02:24:49.003Z,101177.91
2018-11-02T02:27:17.330Z,101169.80
2018-11-02T02:29:45.680Z,101179.59
2018-11-02T02:32:14.007Z,101183.14
2018-11-02T02:34:42.474Z,101191.62
2018-11-02T02:37:10.797Z,101195.56
2018-11-02T02:39:39.112Z,101204.09
2018-11-02T02:42:07.479Z,101214.25
2018-11-02T02:44:35.799Z,101220.45
2018-11-02T02:47:04.175Z,101230.69
2018-11-02T02:49:32.514Z,101233.87
2018-11-02T02:52:00.837Z,101232.11
2018-11-02T02:54:29.192Z,101231.84
2018-11-02T02:56:57.550Z,101231.72
2018-11-02T02:59:25.892Z,101232.64
2018-11-02T03:01:54.253Z,101231.77
2018-11-02T03:04:22.665Z,101235.67
2018-11-02T03:06:51.014Z,101242.80
2018-11-02T03:09:19.356Z,101245.02
2018-11-02T03:11:47.685Z,101240.75
2018-11-02T03:14:15.998Z,101248.14
2018-11-02T03:16:44.353Z,101243.78
2018-11-02T03:19:12.683Z,101246.34
2018-11-02T03:21:41.013Z,101242.50
2018-11-02T03:24:09.350Z,101258.88
2018-11-02T03:26:37.860Z,101250.36
2018-11-02T03:29:06.188Z,101256.09
2018-11-02T03:31:34.528Z,101261.84
2018-11-02T03:34:02.878Z,101255.34
2018-11-02T03:36:31.295Z,101253.07
2018-11-02T03:38:59.646Z,101260.97
2018-11-02T03:41:27.978Z,101250.00
2018-11-02T03:43:56.310Z,101256.55
2018-11-02T03:46:24.636Z,101265.02
2018-11-02T03:48:53.020Z,101260.68
2018-11-02T03:51:21.307Z,101265.08
2018-11-02T03:53:49.627Z,101270.38
2018-11-02T03:56:17.970Z,101267.64
2018-11-02T03:58:47.159Z,101272.28
2018-11-02T04:01:15.503Z,101274.02
2018-11-02T04:03:43.842Z,101278.03
2018-11-02T04:06:12.208Z,101273.97
2018-11-02T04:08:40.595Z,101270.94
2018-11-02T04:11:08.993Z,101270.89
2018-11-02T04:13:37.318Z,101274.95
2018-11-02T04:16:05.648Z,101274.89
2018-11-02T04:18:33.991Z,101283.06
2018-11-02T04:21:02.310Z,101282.13
2018-11-02T04:23:30.662Z,101279.45
2018-11-02T04:25:59.014Z,101283.41
2018-11-02T04:28:27.532Z,101286.55
2018-11-02T04:30:55.951Z,101295.33
2018-11-02T04:33:24.340Z,101289.27
2018-11-02T04:35:52.625Z,101298.25
2018-11-02T04:38:20.959Z,101301.80
2018-11-02T04:40:49.287Z,101304.87
2018-11-02T04:43:17.611Z,101302.20
2018-11-02T04:45:45.939Z,101302.66
2018-11-02T04:48:14.273Z,101312.83
2018-11-02T04:50:42.795Z,101315.04
2018-11-02T04:53:11.078Z,101321.70
2018-11-02T04:55:39.409Z,101322.58
2018-11-02T04:58:07.749Z,101328.84
2018-11-02T05:00:36.118Z,101332.34
2018-11-02T05:03:05.142Z,101344.55
2018-11-02T05:05:33.471Z,101344.55
2018-11-02T05:08:02.023Z,101346.41
2018-11-02T05:10:30.359Z,101351.63
2018-11-02T05:12:58.896Z,101339.16
2018-11-02T05:15:27.242Z,101336.45
2018-11-02T05:17:55.576Z,101330.64
2018-11-02T05:20:23.920Z,101337.38
2018-11-02T05:22:52.269Z,101341.36
2018-11-02T05:25:21.029Z,101347.31
2018-11-02T05:27:49.392Z,101352.29
2018-11-02T05:30:17.770Z,101369.03
2018-11-02T05:32:46.130Z,101374.80
2018-11-02T05:35:15.096Z,101374.98
2018-11-02T05:37:43.409Z,101381.55
2018-11-02T05:40:11.758Z,101391.77
2018-11-02T05:42:40.117Z,101387.36
2018-11-02T05:45:08.462Z,101394.53
2018-11-02T05:47:36.779Z,101393.30
2018-11-02T05:50:05.109Z,101393.70
2018-11-02T05:52:33.492Z,101386.53
2018-11-02T05:55:02.108Z,101388.37
2018-11-02T05:57:30.475Z,101396.33
2018-11-02T05:59:58.812Z,101402.53
2018-11-02T06:02:27.164Z,101411.41
2018-11-02T06:04:55.865Z,101418.05
2018-11-02T06:07:24.193Z,101414.55
2018-11-02T06:09:52.538Z,101411.52
2018-11-02T06:12:21.014Z,101415.92
2018-11-02T06:14:49.568Z,101402.16
2018-11-02T06:17:17.880Z,101401.72
2018-11-02T06:19:46.257Z,101411.52
2018-11-02T06:22:14.609Z,101419.97
2018-11-02T06:26:07.362Z,101424.39
2018-11-02T06:28:35.711Z,101437.82
2018-11-02T06:31:04.032Z,101438.09
2018-11-02T06:33:32.455Z,101444.54
2018-11-02T06:36:00.866Z,101449.84
2018-11-02T06:38:29.303Z,101451.13
2018-11-02T06:40:57.570Z,101461.75
2018-11-02T06:43:25.917Z,101466.22
2018-11-02T06:45:54.347Z,101465.71
2018-11-02T06:48:22.696Z,101478.59
2018-11-02T06:50:51.038Z,101479.01
2018-11-02T06:53:19.367Z,101485.68
2018-11-02T06:55:47.696Z,101494.52
2018-11-02T06:58:16.011Z,101501.65
2018-11-02T07:00:44.364Z,101505.57
2018-11-02T07:03:12.681Z,101510.08
2018-11-02T07:05:41.003Z,101509.95
2018-11-02T07:08:09.458Z,101517.02
2018-11-02T07:10:37.696Z,101515.15
2018-11-02T07:13:06.031Z,101515.98
2018-11-02T07:15:35.546Z,101514.17
2018-11-02T07:18:03.870Z,101515.84
2018-11-02T07:20:32.434Z,101528.63
2018-11-02T07:23:00.832Z,101529.05
2018-11-02T07:25:29.181Z,101526.75
2018-11-02T07:27:57.528Z,101531.13
2018-11-02T07:30:25.864Z,101531.44
2018-11-02T07:32:54.597Z,101534.89
2018-11-02T07:35:22.903Z,101535.63
2018-11-02T07:37:51.214Z,101540.02
2018-11-02T07:40:19.580Z,101539.00
2018-11-02T07:42:47.909Z,101540.59
2018-11-02T07:45:16.239Z,101551.45
2018-11-02T07:47:44.687Z,101554.73
2018-11-02T07:50:13.509Z,101559.87
2018-11-02T07:52:41.983Z,101561.66
2018-11-02T07:55:12.218Z,101566.71
2018-11-02T07:57:40.552Z,101576.62
2018-11-02T08:00:15.329Z,101578.46
2018-11-02T08:02:45.052Z,101585.95
2018-11-02T08:05:14.103Z,101595.83
2018-11-02T08:07:42.614Z,101590.96
2018-11-02T08:10:11.201Z,101589.61
2018-11-02T08:12:39.554Z,101593.88
2018-11-02T08:15:09.668Z,101605.48
2018-11-02T08:17:38.874Z,101601.77
2018-11-02T08:20:07.609Z,101600.06
2018-11-02T08:22:36.000Z,101612.45
2018-11-02T08:25:04.880Z,101616.10
2018-11-02T08:27:33.211Z,101612.27
2018-11-02T08:30:01.548Z,101619.67
2018-11-02T08:32:29.885Z,101617.65
2018-11-02T08:34:58.237Z,101614.04
2018-11-02T08:37:26.569Z,101615.22
2018-11-02T08:39:54.889Z,101621.84
2018-11-02T08:42:23.273Z,101624.81
2018-11-02T08:44:51.888Z,101622.16
2018-11-02T08:47:20.236Z,101628.63
2018-11-02T08:49:48.585Z,101634.72
2018-11-02T08:54:44.420Z,101632.56
2018-11-02T08:57:12.764Z,101628.53
2018-11-02T08:59:41.161Z,101630.49
2018-11-02T09:02:09.455Z,101633.49
2018-11-02T09:04:37.770Z,101633.17
2018-11-02T09:07:06.452Z,101636.27
2018-11-02T09:09:34.831Z,101639.56
2018-11-02T09:12:03.185Z,101637.89
2018-11-02T09:14:31.575Z,101641.75
2018-11-02T09:16:59.905Z,101643.64
2018-11-02T09:19:28.355Z,101647.87
2018-11-02T09:21:56.727Z,101650.92
2018-11-02T09:24:25.850Z,101656.70
2018-11-02T09:26:54.230Z,101659.72
2018-11-02T09:29:22.549Z,101664.21
2018-11-02T09:31:50.914Z,101672.58
2018-11-02T09:34:19.242Z,101680.33
2018-11-02T09:36:48.269Z,101683.69
2018-11-02T09:39:16.624Z,101684.94
2018-11-02T09:41:45.020Z,101692.00
2018-11-02T09:44:13.371Z,101687.80
2018-11-02T09:46:41.772Z,101691.06
2018-11-02T09:49:10.134Z,101691.19
2018-11-02T09:51:38.582Z,101679.05
2018-11-02T09:54:06.871Z,101683.02
2018-11-02T09:56:35.237Z,101684.50
2018-11-02T09:59:03.676Z,101689.58
2018-11-02T10:01:32.305Z,101685.64
2018-11-02T10:04:00.707Z,101671.03
2018-11-02T10:06:29.059Z,101669.03
2018-11-02T10:08:57.514Z,101672.38
2018-11-02T10:11:25.973Z,101676.73
2018-11-02T10:13:54.397Z,101688.20
2018-11-02T10:16:22.748Z,101686.89
2018-11-02T10:18:51.699Z,101684.13
2018-11-02T10:21:20.035Z,101678.92
2018-11-02T10:23:48.390Z,101683.44
2018-11-02T10:26:16.745Z,101693.55
2018-11-02T10:28:45.119Z,101703.56
2018-11-02T10:31:13.491Z,101703.05
2018-11-02T10:33:41.857Z,101698.58
2018-11-02T10:36:10.291Z,101687.39
2018-11-02T10:38:38.904Z,101689.03
2018-11-02T10:41:08.044Z,101694.61
2018-11-02T10:43:37.033Z,101690.78
2018-11-02T10:46:05.395Z,101690.39
2018-11-02T10:48:33.745Z,101703.20
2018-11-02T10:51:02.235Z,101715.03
2018-11-02T10:53:30.603Z,101723.19
2018-11-02T10:55:58.913Z,101719.62
2018-11-02T10:58:27.279Z,101714.78
2018-11-02T11:01:01.274Z,101724.55
2018-11-02T11:03:29.417Z,101717.73
2018-11-02T11:05:57.785Z,101719.50
2018-11-02T11:08:26.276Z,101724.00
2018-11-02T11:10:55.275Z,101727.35
2018-11-02T11:13:23.953Z,101731.00
2018-11-02T11:15:52.041Z,101723.50
2018-11-02T11:18:20.403Z,101719.61
2018-11-02T11:20:48.760Z,101707.34
2018-11-02T11:23:17.105Z,101708.09
2018-11-02T11:25:45.462Z,101722.98
2018-11-02T11:28:13.847Z,101723.53
2018-11-02T11:30:42.188Z,101730.00
2018-11-02T11:33:10.555Z,101724.65
2018-11-02T11:35:38.916Z,101733.50
2018-11-02T11:38:07.254Z,101743.09
2018-11-02T11:40:35.621Z,101736.80
2018-11-02T11:43:04.036Z,101732.16
2018-11-02T11:45:32.385Z,101733.02
2018-11-02T11:48:00.758Z,101730.95
2018-11-02T11:50:29.106Z,101735.40
2018-11-02T11:52:57.457Z,101741.39
2018-11-02T11:55:25.834Z,101751.31
2018-11-02T11:57:54.224Z,101750.09
2018-11-02T12:00:23.581Z,101751.44
2018-11-02T12:02:52.568Z,101759.45
2018-11-02T12:05:22.372Z,101761.08
2018-11-02T12:07:50.767Z,101753.27
2018-11-02T12:10:21.656Z,101746.91
2018-11-02T12:12:50.017Z,101746.39
2018-11-02T12:15:19.580Z,101752.41
2018-11-02T12:17:48.363Z,101757.27
2018-11-02T12:20:22.258Z,101764.95
2018-11-02T12:22:51.752Z,101760.23
2018-11-02T12:25:20.707Z,101761.31
2018-11-02T12:27:49.046Z,101763.48
2018-11-02T12:30:18.464Z,101756.16
2018-11-02T12:32:46.824Z,101755.13
2018-11-02T12:35:16.335Z,101754.61
2018-11-02T12:37:44.693Z,101751.14
2018-11-02T12:40:14.329Z,101750.59
2018-11-02T12:42:43.127Z,101750.23
2018-11-02T12:45:13.532Z,101751.73
2018-11-02T12:47:42.397Z,101759.44
2018-11-02T12:50:13.659Z,101756.67
2018-11-02T12:52:42.269Z,101761.19
2018-11-02T12:55:11.146Z,101766.38
2018-11-02T12:57:39.819Z,101771.70
2018-11-02T13:00:10.564Z,101770.91
2018-11-02T13:02:38.887Z,101777.70
2018-11-02T13:05:07.760Z,101776.64
2018-11-02T13:07:36.212Z,101782.70
2018-11-02T13:10:04.944Z,101778.70
2018-11-02T13:12:33.311Z,101774.67
2018-11-02T13:15:01.671Z,101786.63
2018-11-02T13:17:30.047Z,101783.53
2018-11-02T13:19:58.436Z,101788.16
2018-11-02T13:22:26.785Z,101792.22
2018-11-02T13:24:55.115Z,101786.16
2018-11-02T13:27:23.471Z,101786.03
2018-11-02T13:29:51.953Z,101784.64
2018-11-02T13:32:20.318Z,101795.25
2018-11-02T13:34:48.681Z,101798.89
2018-11-02T13:37:17.063Z,101805.45
2018-11-02T13:39:45.373Z,101813.06
2018-11-02T13:42:13.790Z,101820.60
2018-11-02T13:44:42.139Z,101830.09
2018-11-02T13:47:10.481Z,101834.14
2018-11-02T13:49:38.821Z,101832.31
2018-11-02T13:52:08.078Z,101836.52
2018-11-02T13:54:36.396Z,101831.20
2018-11-02T13:57:04.940Z,101831.69
2018-11-02T13:59:33.396Z,101825.12
2018-11-02T14:02:01.769Z,101815.72
2018-11-02T14:04:30.122Z,101825.27
2018-11-02T14:06:58.760Z,101822.09
2018-11-02T14:09:27.134Z,101820.08
2018-11-02T14:11:55.478Z,101814.83
2018-11-02T14:14:23.877Z,101815.34
2018-11-02T14:16:52.224Z,101818.52
2018-11-02T14:19:20.617Z,101823.52
2018-11-02T14:21:49.375Z,101835.75
2018-11-02T14:24:17.770Z,101830.47
2018-11-02T14:26:46.286Z,101840.45
2018-11-02T14:29:14.746Z,101848.72
2018-11-02T14:31:43.067Z,101852.69
2018-11-02T14:34:11.421Z,101852.57
2018-11-02T14:36:39.799Z,101855.84
2018-11-02T14:39:10.556Z,101852.64
2018-11-02T14:41:39.135Z,101851.80
2018-11-02T14:44:07.724Z,101856.02
2018-11-02T14:46:36.341Z,101854.95
2018-11-02T14:49:05.098Z,101866.98
2018-11-02T14:51:33.585Z,101860.62
2018-11-02T14:54:01.973Z,101858.45
2018-11-02T14:56:30.648Z,101866.64
2018-11-02T14:58:59.230Z,101879.04
2018-11-02T15:01:28.225Z,101876.44
2018-11-02T15:03:57.152Z,101877.89
2018-11-02T15:06:25.541Z,101883.10
2018-11-02T15:08:54.185Z,101877.81
2018-11-02T15:11:22.854Z,101883.77
2018-11-02T15:13:51.434Z,101887.53
2018-11-02T15:16:19.805Z,101899.84
2018-11-02T15:18:48.733Z,101904.91
2018-11-02T15:21:17.313Z,101909.48
2018-11-02T15:23:45.894Z,101903.34
2018-11-02T15:26:14.805Z,101904.39
2018-11-02T15:28:43.193Z,101908.17
2018-11-02T15:31:11.557Z,101905.72
2018-11-02T15:33:39.916Z,101907.69
2018-11-02T15:36:08.344Z,101914.98
2018-11-02T15:38:36.850Z,101922.77
2018-11-02T15:41:05.746Z,101930.05
2018-11-02T15:43:34.129Z,101939.20
2018-11-02T15:46:02.493Z,101949.72
2018-11-02T15:48:30.878Z,101948.67
2018-11-02T15:50:59.208Z,101951.36
2018-11-02T15:53:27.600Z,101958.22
2018-11-02T15:55:56.151Z,101964.15
2018-11-02T15:58:24.525Z,101975.54
2018-11-02T16:00:52.957Z,101972.98
2018-11-02T16:03:21.320Z,101980.39
2018-11-02T16:05:49.679Z,101973.75
2018-11-02T16:08:18.046Z,101972.19
2018-11-02T16:10:46.447Z,101958.36
2018-11-02T16:13:14.805Z,101959.58
2018-11-02T16:15:43.167Z,101958.27
2018-11-02T16:18:11.530Z,101950.60
2018-11-02T16:20:39.883Z,101947.59
2018-11-02T16:23:08.237Z,101952.69
2018-11-02T16:25:36.624Z,101956.91
2018-11-02T16:28:05.388Z,101955.30
2018-11-02T16:30:33.815Z,101959.45
2018-11-02T16:33:02.152Z,101963.07
2018-11-02T16:35:30.482Z,101958.77
2018-11-02T16:37:58.864Z,101970.58
2018-11-02T16:40:27.204Z,101976.86
2018-11-02T16:42:55.561Z,101975.60
2018-11-02T16:45:23.940Z,101975.17
2018-11-02T16:47:52.354Z,101981.95
2018-11-02T16:50:20.775Z,101993.27
2018-11-02T16:52:49.094Z,102005.00
2018-11-02T16:55:17.522Z,102007.88
2018-11-02T16:57:46.035Z,102009.72
2018-11-02T17:00:16.370Z,102013.23
2018-11-02T17:02:45.786Z,102026.87
2018-11-02T17:05:14.156Z,102043.09
2018-11-02T17:07:43.000Z,102047.95
2018-11-02T17:10:12.854Z,102050.11
2018-11-02T17:12:41.643Z,102040.31
2018-11-02T17:15:10.644Z,102049.23
2018-11-02T17:17:39.016Z,102056.35
2018-11-02T17:20:17.621Z,102058.09
2018-11-02T17:22:46.224Z,102063.52
2018-11-02T17:25:14.934Z,102066.75
2018-11-02T17:27:43.299Z,102070.78
2018-11-02T17:30:14.634Z,102073.38
2018-11-02T17:32:43.013Z,102075.36
2018-11-02T17:35:11.911Z,102077.99
2018-11-02T17:37:40.302Z,102075.78
2018-11-02T17:40:11.335Z,102078.23
2018-11-02T17:42:39.796Z,102083.33
2018-11-02T17:45:09.006Z,102092.25
2018-11-02T17:47:38.565Z,102104.32
2018-11-02T17:50:07.892Z,102115.58
2018-11-02T17:52:36.225Z,102110.35
2018-11-02T17:55:04.600Z,102098.77
2018-11-02T17:57:32.938Z,102111.19
2018-11-02T18:00:01.352Z,102117.56
2018-11-02T18:02:29.721Z,102126.94
2018-11-02T18:04:58.096Z,102129.23
2018-11-02T18:07:26.464Z,102125.64
2018-11-02T18:09:54.849Z,102119.48
2018-11-02T18:12:23.294Z,102124.84
2018-11-02T18:14:51.544Z,102120.32
2018-11-02T18:17:19.904Z,102122.55
2018-11-02T18:26:48.105Z,102141.95
2018-11-02T18:29:16.483Z,102142.42
2018-11-02T18:31:44.822Z,102151.34
2018-11-02T18:34:13.594Z,102137.91
2018-11-02T18:36:41.944Z,102146.77
2018-11-02T18:39:13.690Z,102149.50
2018-11-02T18:41:42.804Z,102159.75
2018-11-02T18:44:11.380Z,102172.27
2018-11-02T18:46:41.293Z,102183.55
2018-11-02T18:49:10.084Z,102187.19
2018-11-02T18:51:39.079Z,102184.89
2018-11-02T18:54:07.647Z,102178.20
2018-11-02T18:56:36.059Z,102183.59
2018-11-02T18:59:04.644Z,102188.03
2018-11-02T19:25:32.589Z,102217.03
2018-11-02T19:28:00.945Z,102224.61
2018-11-02T19:30:29.332Z,102230.48
2018-11-02T19:32:57.698Z,102234.47
2018-11-02T19:35:26.044Z,102246.51
2018-11-02T19:37:54.420Z,102248.80
2018-11-02T19:40:22.768Z,102248.86
2018-11-02T19:42:51.212Z,102250.69
2018-11-02T19:45:19.557Z,102258.70
2018-11-02T19:47:51.166Z,102271.09
2018-11-02T19:50:20.182Z,102271.09
2018-11-02T19:52:48.512Z,102271.64
2018-11-02T19:55:16.982Z,102278.75
2018-11-02T19:57:45.506Z,102276.91
2018-11-02T20:00:16.131Z,102277.72
2018-11-02T20:02:44.488Z,102273.68
2018-11-02T20:05:14.927Z,102292.38
2018-11-02T20:07:43.615Z,102298.72
2018-11-02T20:10:13.047Z,102299.53
2018-11-02T20:12:41.734Z,102299.96
2018-11-02T20:15:10.922Z,102292.88
2018-11-02T20:17:39.824Z,102291.11
2018-11-02T20:20:09.521Z,102287.55
2018-11-02T20:22:38.195Z,102281.25
2018-11-02T20:25:07.464Z,102272.86
2018-11-02T20:27:35.833Z,102277.66
2018-11-02T20:30:04.647Z,102288.86
2018-11-02T20:32:33.190Z,102286.18
2018-11-02T20:35:01.509Z,102271.88
2018-11-02T20:37:29.990Z,102288.80
2018-11-02T20:39:58.337Z,102290.17
2018-11-02T20:42:26.730Z,102298.31
2018-11-02T20:44:55.095Z,102304.55
2018-11-02T20:47:23.462Z,102316.48
2018-11-02T20:49:51.937Z,102311.64
2018-11-02T20:52:20.264Z,102304.01
2018-11-02T20:54:48.627Z,102310.67
2018-11-02T20:57:17.030Z,102319.10
2018-11-02T20:59:45.397Z,102316.48
2018-11-02T21:02:13.733Z,102318.67
2018-11-02T21:04:42.097Z,102313.34
2018-11-02T21:07:10.559Z,102315.17
2018-11-02T21:09:39.133Z,102312.16
2018-11-02T21:12:07.383Z,102315.69
2018-11-02T21:14:35.867Z,102312.19
2018-11-02T21:17:04.207Z,102314.48
2018-11-02T21:19:32.538Z,102317.11
2018-11-02T21:22:01.001Z,102321.98
2018-11-02T21:24:29.297Z,102322.95
2018-11-02T21:26:57.660Z,102325.11
2018-11-02T21:29:26.044Z,102326.42
2018-11-02T21:31:54.401Z,102330.87
2018-11-02T21:34:22.732Z,102339.35
2018-11-02T21:36:51.108Z,102339.35
2018-11-02T21:39:19.468Z,102338.04
2018-11-02T21:41:47.832Z,102346.07
2018-11-02T21:44:16.198Z,102348.80
2018-11-02T21:46:44.601Z,102339.89
2018-11-02T21:49:12.948Z,102342.19
2018-11-02T21:51:41.332Z,102340.02
2018-11-02T21:54:09.685Z,102341.36
2018-11-02T21:56:38.097Z,102339.20
2018-11-02T21:59:06.781Z,102347.55
2018-11-02T22:01:35.136Z,102353.38
2018-11-02T22:04:03.506Z,102365.55
2018-11-02T22:06:31.853Z,102360.62
2018-11-02T22:09:00.293Z,102360.09
2018-11-02T22:11:28.960Z,102374.81
2018-11-02T22:13:57.233Z,102376.17
2018-11-02T22:16:25.593Z,102382.89
2018-11-02T22:18:53.949Z,102383.77
2018-11-02T22:21:22.412Z,102386.02
2018-11-02T22:23:50.773Z,102382.09
2018-11-02T22:26:19.131Z,102379.37
2018-11-02T22:28:47.534Z,102373.09
2018-11-02T22:31:15.940Z,102367.33
2018-11-02T22:33:44.204Z,102372.25
2018-11-02T22:36:12.572Z,102382.96
2018-11-02T22:38:40.946Z,102378.97
2018-11-02T22:41:09.296Z,102382.06
2018-11-02T22:43:37.677Z,102378.53
2018-11-02T22:46:06.683Z,102386.15
2018-11-02T22:48:35.102Z,102388.84
2018-11-02T22:51:03.421Z,102388.78
2018-11-02T22:53:31.782Z,102383.89
2018-11-02T22:56:00.184Z,102387.48
2018-11-02T22:58:28.555Z,102392.36
2018-11-02T23:01:02.303Z,102392.80
2018-11-02T23:03:30.654Z,102384.77
2018-11-02T23:05:59.030Z,102381.66
2018-11-02T23:08:27.447Z,102386.19
2018-11-02T23:10:55.789Z,102380.39
2018-11-02T23:13:24.165Z,102382.56
2018-11-02T23:15:52.519Z,102385.69
2018-11-02T23:18:21.420Z,102387.02
2018-11-02T23:20:49.769Z,102379.84
2018-11-02T23:23:18.154Z,102367.35
2018-11-02T23:25:46.495Z,102362.91
2018-11-02T23:28:14.850Z,102362.52
2018-11-02T23:30:43.215Z,102367.88
2018-11-02T23:33:11.573Z,102362.55
2018-11-02T23:35:39.980Z,102358.13
2018-11-02T23:38:08.393Z,102349.17
2018-11-02T23:40:36.776Z,102355.84
2018-11-02T23:43:05.343Z,102361.27
2018-11-02T23:45:34.414Z,102357.25
2018-11-02T23:48:08.188Z,102361.70
2018-11-02T23:50:36.573Z,102368.30
2018-11-02T23:53:05.075Z,102374.07
2018-11-02T23:55:33.446Z,102369.60
2018-11-02T23:58:01.909Z,102354.05
